createdAt,value
2019-06-07T00:00:54.119Z,25.20
2019-06-07T00:05:57.605Z,25.21
2019-06-07T00:11:01.047Z,25.18
2019-06-07T00:16:04.740Z,25.20
2019-06-07T00:21:08.921Z,25.12
2019-06-07T00:26:17.335Z,25.11
2019-06-07T00:31:24.148Z,25.12
2019-06-07T00:36:23.848Z,25.12
2019-06-07T00:41:27.307Z,25.12
2019-06-07T00:46:30.771Z,25.12
2019-06-07T00:51:49.429Z,25.11
2019-06-07T00:56:39.422Z,25.11
2019-06-07T01:01:42.892Z,25.07
2019-06-07T01:06:46.353Z,25.05
2019-06-07T01:11:49.811Z,24.95
2019-06-07T01:17:01.306Z,24.91
2019-06-07T01:21:58.465Z,24.94
2019-06-07T01:27:01.931Z,24.94
2019-06-07T01:32:05.400Z,24.95
2019-06-07T01:37:08.861Z,24.93
2019-06-07T01:42:12.322Z,24.95
2019-06-07T01:47:17.691Z,24.97
2019-06-07T01:52:23.528Z,24.90
2019-06-07T01:57:39.761Z,24.81
2019-06-07T02:02:31.932Z,24.78
2019-06-07T02:07:35.924Z,24.78
2019-06-07T02:12:43.246Z,24.79
2019-06-07T02:17:44.572Z,24.80
2019-06-07T02:22:48.264Z,24.79
2019-06-07T02:27:51.721Z,24.80
2019-06-07T02:32:55.184Z,24.75
2019-06-07T02:37:58.644Z,24.67
2019-06-07T02:43:02.101Z,24.64
2019-06-07T02:48:05.566Z,24.66
2019-06-07T02:53:09.029Z,24.67
2019-06-07T02:58:12.498Z,24.63
2019-06-07T03:03:17.148Z,24.65
2019-06-07T03:08:20.619Z,24.64
2019-06-07T03:13:24.154Z,24.60
2019-06-07T03:18:45.688Z,24.61
2019-06-07T03:23:50.668Z,24.63
2019-06-07T03:28:55.706Z,24.61
2019-06-07T03:33:59.191Z,24.60
2019-06-07T03:39:02.876Z,24.63
2019-06-07T03:44:06.276Z,24.62
2019-06-07T03:49:09.758Z,24.60
2019-06-07T03:54:13.994Z,24.60
2019-06-07T03:59:17.462Z,24.59
2019-06-07T04:04:20.926Z,24.28
2019-06-07T04:09:24.392Z,24.08
2019-06-07T04:14:29.717Z,23.89
2019-06-07T04:19:38.259Z,23.77
2019-06-07T04:24:41.861Z,23.82
2019-06-07T04:30:05.690Z,23.74
2019-06-07T04:34:48.977Z,23.73
2019-06-07T04:39:53.839Z,23.65
2019-06-07T04:44:59.885Z,23.61
2019-06-07T04:50:04.893Z,23.61
2019-06-07T04:55:08.438Z,23.45
2019-06-07T05:00:46.189Z,23.41
2019-06-07T05:05:17.328Z,23.33
2019-06-07T05:10:20.792Z,23.22
2019-06-07T05:15:24.385Z,23.16
2019-06-07T05:20:27.856Z,23.12
2019-06-07T05:25:33.217Z,23.15
2019-06-07T05:35:43.800Z,23.16
2019-06-07T05:40:48.655Z,23.19
2019-06-07T05:45:52.486Z,23.13
2019-06-07T05:50:57.514Z,23.15
2019-06-07T05:56:01.210Z,23.11
2019-06-07T06:01:41.671Z,23.17
2019-06-07T06:06:09.844Z,23.13
2019-06-07T06:11:13.310Z,23.12
2019-06-07T06:16:16.848Z,23.26
2019-06-07T06:21:20.687Z,23.12
2019-06-07T06:26:24.362Z,23.21
2019-06-07T06:31:27.828Z,23.38
2019-06-07T06:36:31.294Z,23.41
2019-06-07T06:41:46.083Z,23.62
2019-06-07T06:46:44.738Z,23.65
2019-06-07T06:51:50.046Z,23.58
2019-06-07T06:56:52.694Z,23.66
2019-06-07T07:01:55.586Z,23.72
2019-06-07T07:06:59.122Z,23.76
2019-06-07T07:12:11.992Z,23.75
2019-06-07T07:17:07.790Z,23.72
2019-06-07T07:22:11.248Z,23.62
2019-06-07T07:27:14.718Z,23.40
2019-06-07T07:32:18.180Z,23.36
2019-06-07T07:37:21.656Z,23.38
2019-06-07T07:42:25.195Z,23.51
2019-06-07T07:47:28.675Z,23.49
2019-06-07T07:52:32.157Z,23.38
2019-06-07T07:57:35.641Z,23.35
2019-06-07T08:02:39.127Z,23.43
2019-06-07T08:07:42.653Z,23.61
2019-06-07T08:13:07.390Z,23.68
2019-06-07T08:17:59.653Z,23.75
2019-06-07T08:22:59.732Z,23.80
2019-06-07T08:28:02.203Z,23.87
2019-06-07T08:33:24.879Z,23.90
2019-06-07T08:38:25.796Z,23.92
2019-06-07T08:43:20.796Z,23.91
2019-06-07T08:48:27.921Z,23.96
2019-06-07T08:53:26.511Z,23.92
2019-06-07T08:58:29.991Z,23.96
2019-06-07T09:03:33.479Z,24.01
2019-06-07T09:08:37.029Z,24.04
2019-06-07T09:13:40.513Z,24.05
2019-06-07T09:18:45.136Z,24.06
2019-06-07T09:23:48.754Z,24.07
2019-06-07T09:28:53.273Z,24.09
2019-06-07T09:33:59.811Z,24.12
2019-06-07T09:39:09.566Z,24.15
2019-06-07T09:44:23.152Z,24.15
2019-06-07T09:49:28.628Z,24.16
2019-06-07T09:59:24.342Z,24.12
2019-06-07T10:04:31.401Z,24.08
2019-06-07T10:14:39.363Z,24.12
2019-06-07T10:19:42.845Z,24.18
2019-06-07T10:24:46.375Z,24.23
2019-06-07T10:29:49.876Z,24.25
2019-06-07T10:34:53.353Z,24.30
2019-06-07T10:39:56.946Z,24.31
2019-06-07T10:50:06.063Z,24.40
2019-06-07T12:08:54.059Z,24.92
2019-06-07T12:13:57.688Z,24.98
2019-06-07T12:19:01.145Z,25.07
2019-06-07T12:24:05.222Z,25.13
2019-06-07T12:29:08.673Z,25.19
2019-06-07T12:34:13.246Z,25.27
2019-06-07T12:39:17.989Z,25.31
2019-06-07T12:44:22.729Z,25.34
2019-06-07T12:49:26.373Z,25.37
2019-06-07T12:54:29.852Z,25.42
2019-06-07T12:59:33.307Z,25.44
2019-06-07T13:04:36.772Z,25.47
2019-06-07T13:09:40.234Z,25.48
2019-06-07T13:14:43.691Z,25.52
2019-06-07T13:19:47.142Z,25.53
2019-06-07T13:24:50.599Z,25.55
2019-06-07T13:29:54.219Z,25.52
2019-06-07T13:34:57.686Z,25.54
2019-06-07T13:40:01.194Z,25.57
2019-06-07T13:45:07.248Z,25.58
2019-06-07T13:50:11.330Z,25.59
2019-06-07T13:55:15.422Z,25.59
2019-06-07T14:00:22.544Z,25.61
2019-06-07T14:05:27.115Z,25.62
2019-06-07T14:10:30.856Z,25.64
2019-06-07T14:15:34.575Z,25.65
2019-06-07T14:20:38.045Z,25.65
2019-06-07T14:25:41.504Z,25.67
2019-06-07T14:30:44.973Z,25.65
2019-06-07T14:35:48.432Z,25.68
2019-06-07T14:40:51.887Z,25.69
2019-06-07T14:45:55.347Z,25.72
2019-06-07T14:50:58.869Z,25.78
2019-06-07T14:56:02.332Z,25.78
2019-06-07T15:01:05.806Z,25.78
2019-06-07T15:06:09.279Z,25.83
2019-06-07T15:11:12.730Z,25.86
2019-06-07T15:16:16.186Z,25.88
2019-06-07T15:21:19.656Z,25.90
2019-06-07T15:26:23.115Z,25.90
2019-06-07T15:31:27.818Z,25.91
2019-06-07T15:36:32.602Z,25.92
2019-06-07T15:41:37.328Z,25.91
2019-06-07T15:46:41.111Z,25.92
2019-06-07T15:51:44.633Z,25.97
2019-06-07T15:56:48.080Z,25.95
2019-06-07T16:01:51.551Z,25.99
2019-06-07T16:06:54.995Z,26.01
2019-06-07T16:11:58.464Z,26.04
2019-06-07T16:17:01.927Z,26.03
2019-06-07T16:22:05.457Z,26.04
2019-06-07T16:27:08.922Z,26.03
2019-06-07T16:32:12.387Z,26.04
2019-06-07T16:37:15.852Z,26.04
2019-06-07T16:42:19.325Z,26.03
2019-06-07T16:47:22.773Z,26.04
2019-06-07T16:52:26.235Z,26.07
2019-06-07T16:57:29.697Z,26.11
2019-06-07T17:02:33.728Z,26.15
2019-06-07T17:07:38.320Z,26.12
2019-06-07T17:12:42.876Z,26.12
2019-06-07T17:17:47.079Z,26.17
2019-06-07T17:22:50.637Z,26.17
2019-06-07T17:27:54.086Z,26.21
2019-06-07T17:32:59.464Z,26.24
2019-06-07T17:38:02.734Z,26.22
2019-06-07T17:43:06.189Z,26.25
2019-06-07T17:48:09.667Z,26.25
2019-06-07T17:53:13.114Z,26.27
2019-06-07T17:58:16.572Z,26.27
2019-06-07T18:03:20.268Z,26.27
2019-06-07T18:08:25.138Z,26.18
2019-06-07T18:13:28.602Z,26.25
2019-06-07T18:18:32.054Z,26.25
2019-06-07T18:23:35.514Z,26.25
2019-06-07T18:28:38.973Z,26.23
2019-06-07T18:33:43.589Z,26.23
2019-06-07T18:38:47.043Z,26.22
2019-06-07T18:43:51.153Z,26.20
2019-06-07T18:48:54.804Z,26.18
2019-06-07T18:53:58.275Z,26.13
2019-06-07T18:59:01.729Z,26.03
2019-06-07T19:04:05.355Z,26.13
2019-06-07T19:09:09.383Z,26.10
2019-06-07T19:14:12.842Z,26.10
2019-06-07T19:19:16.300Z,26.08
2019-06-07T19:24:19.766Z,26.09
2019-06-07T19:29:23.232Z,26.08
2019-06-07T19:34:26.689Z,26.05
2019-06-07T19:39:30.151Z,26.06
2019-06-07T19:44:33.603Z,26.04
2019-06-07T19:49:37.064Z,26.03
2019-06-07T19:54:40.531Z,26.03
2019-06-07T19:59:44.012Z,26.01
2019-06-07T20:04:47.473Z,26.00
2019-06-07T20:09:50.927Z,25.97
2019-06-07T20:15:17.511Z,25.98
2019-06-07T20:20:00.503Z,25.98
2019-06-07T20:25:05.144Z,25.94
2019-06-07T20:30:11.644Z,25.95
2019-06-07T20:35:15.350Z,25.96
2019-06-07T20:40:24.351Z,25.94
2019-06-07T20:45:33.181Z,25.91
2019-06-07T20:50:29.525Z,25.93
2019-06-07T20:55:32.984Z,25.93
2019-06-07T21:00:36.444Z,25.91
2019-06-07T21:05:39.902Z,25.90
2019-06-07T21:10:43.374Z,25.88
2019-06-07T21:15:49.127Z,25.89
2019-06-07T21:20:51.999Z,25.87
2019-06-07T21:25:55.451Z,25.84
2019-06-07T21:30:58.913Z,25.84
2019-06-07T21:36:04.397Z,25.83
2019-06-07T21:41:08.227Z,25.84
2019-06-07T21:46:19.611Z,25.82
2019-06-07T21:51:16.988Z,25.82
2019-06-07T21:56:20.450Z,25.82
2019-06-07T22:01:25.461Z,25.83
2019-06-07T22:06:28.914Z,25.82
2019-06-07T22:11:32.370Z,25.80
2019-06-07T22:16:35.827Z,25.79
2019-06-07T22:21:39.291Z,25.79
2019-06-07T22:26:42.743Z,25.76
2019-06-07T22:31:46.207Z,25.76
2019-06-07T22:36:49.669Z,25.75
2019-06-07T22:41:53.128Z,25.73
2019-06-07T22:46:56.590Z,25.74
2019-06-07T22:52:08.690Z,25.70
2019-06-07T22:57:07.883Z,25.67
2019-06-07T23:02:12.544Z,25.65
2019-06-07T23:07:17.123Z,25.65
2019-06-07T23:12:20.684Z,25.62
2019-06-07T23:17:24.154Z,25.59
2019-06-07T23:22:27.609Z,25.52
2019-06-07T23:27:31.066Z,25.49
2019-06-07T23:32:34.533Z,25.47
2019-06-07T23:37:38.050Z,25.44
2019-06-07T23:42:41.561Z,25.42
2019-06-07T23:47:45.028Z,25.39
2019-06-07T23:52:49.260Z,25.40
2019-06-07T23:57:52.720Z,25.34
